Time;durP1;ratioP1;P1;durP2;ratioP2;P2;SDS_P1;SDS_P2;PMS_P1;PMS_P2;Temp;Humidity;BMP_temperature;BMP_pressure;BME280_temperature;BME280_humidity;BME280_pressure;Samples;Min_cycle;Max_cycle;Signal;HPM_P1;HPM_P2
2023/04/08 00:01:40;;;;;;;17.13;9.85;;;;;9.90;98890.00;;;;5054919;28;20436;-56
2023/04/08 00:04:08;;;;;;;15.98;10.65;;;;;9.90;98895.00;;;;5053512;28;20053;-58
2023/04/08 00:06:36;;;;;;;13.25;9.95;;;;;9.90;98891.00;;;;5054549;28;20409;-57
2023/04/08 00:09:02;;;;;;;14.73;9.43;;;;;9.90;98892.00;;;;5054809;28;20053;-56
2023/04/08 00:11:29;;;;;;;16.80;10.38;;;;;9.90;98895.00;;;;5053664;28;20147;-56
2023/04/08 00:13:56;;;;;;;15.25;9.77;;;;;9.90;98896.00;;;;5054917;28;20460;-57
2023/04/08 00:16:22;;;;;;;16.77;9.88;;;;;9.90;98895.00;;;;5055146;28;20440;-59
2023/04/08 00:18:49;;;;;;;15.18;9.45;;;;;9.90;98897.00;;;;5054383;28;20459;-60
2023/04/08 00:21:19;;;;;;;15.25;9.82;;;;;10.00;98903.00;;;;5054491;28;20051;-59
2023/04/08 00:23:46;;;;;;;14.15;9.35;;;;;10.00;98901.00;;;;5053529;28;20095;-60
2023/04/08 00:26:12;;;;;;;16.10;9.93;;;;;10.00;98902.00;;;;5054382;28;20045;-60
2023/04/08 00:28:41;;;;;;;12.38;8.98;;;;;10.00;98896.00;;;;5052718;28;20099;-57
2023/04/08 00:31:08;;;;;;;16.08;10.75;;;;;10.00;98903.00;;;;5054156;28;20045;-56
2023/04/08 00:33:35;;;;;;;16.77;10.25;;;;;10.00;98897.00;;;;5054283;28;20041;-55
2023/04/08 00:36:02;;;;;;;14.75;10.05;;;;;10.00;98893.00;;;;5052748;28;20040;-58
2023/04/08 00:38:29;;;;;;;16.17;10.55;;;;;10.00;98895.00;;;;5052672;28;20041;-58
2023/04/08 00:40:57;;;;;;;15.20;10.02;;;;;9.90;98884.00;;;;5054455;28;20107;-57
2023/04/08 00:43:23;;;;;;;17.40;10.25;;;;;9.80;98897.00;;;;5055041;28;20040;-60
2023/04/08 00:45:50;;;;;;;19.40;10.18;;;;;9.80;98892.00;;;;5056753;28;20048;-60
2023/04/08 00:48:17;;;;;;;15.73;10.07;;;;;9.80;98896.00;;;;5055580;28;20104;-57
2023/04/08 00:50:45;;;;;;;17.33;10.32;;;;;9.80;98895.00;;;;5053231;28;20045;-56
2023/04/08 00:53:19;;;;;;;15.65;10.15;;;;;9.80;98885.00;;;;5053730;28;20045;-56
2023/04/08 00:55:45;;;;;;;15.53;9.93;;;;;9.80;98891.00;;;;5055422;28;20041;-57
2023/04/08 00:58:12;;;;;;;15.80;9.65;;;;;9.80;98902.00;;;;5055915;28;20629;-57
2023/04/08 01:00:57;;;;;;;15.18;10.02;;;;;9.90;98894.00;;;;5056043;28;20055;-57
2023/04/08 01:04:14;;;;;;;18.30;11.07;;;;;10.00;98903.00;;;;5056383;28;20053;-58
2023/04/08 01:06:48;;;;;;;;;;;;;10.00;98899.00;;;;5038328;28;20045;-61
2023/04/08 01:09:18;;;;;;;15.68;10.35;;;;;10.00;98897.00;;;;5021869;28;20416;-60
2023/04/08 01:11:49;;;;;;;15.73;10.20;;;;;10.00;98891.00;;;;5050822;28;20049;-59
2023/04/08 01:14:20;;;;;;;14.52;10.02;;;;;10.00;98898.00;;;;5060778;28;20076;-59
2023/04/08 01:16:47;;;;;;;17.42;10.27;;;;;10.10;98897.00;;;;5061081;28;20044;-59
2023/04/08 01:19:25;;;;;;;16.33;9.80;;;;;10.10;98898.00;;;;5059920;28;20110;-59
2023/04/08 01:21:53;;;;;;;16.42;10.10;;;;;10.10;98894.00;;;;5060235;28;20050;-59
2023/04/08 01:24:28;;;;;;;14.88;9.60;;;;;10.10;98888.00;;;;5061304;28;20045;-59
2023/04/08 01:26:57;;;;;;;16.80;10.88;;;;;10.10;98896.00;;;;5063152;28;20136;-59
2023/04/08 01:29:25;;;;;;;16.85;10.50;;;;;10.20;98892.00;;;;5060024;28;20516;-59
2023/04/08 01:31:54;;;;;;;14.85;10.15;;;;;10.10;98891.00;;;;5062214;28;20048;-60
2023/04/08 01:34:21;;;;;;;15.60;10.57;;;;;10.10;98894.00;;;;5060638;28;20053;-60
2023/04/08 01:36:49;;;;;;;15.85;10.30;;;;;10.10;98894.00;;;;5060838;28;20060;-59
2023/04/08 01:39:17;;;;;;;16.98;10.30;;;;;10.10;98886.00;;;;5062107;28;20108;-60
2023/04/08 01:41:45;;;;;;;16.85;11.13;;;;;10.10;98895.00;;;;5062470;28;20062;-59
2023/04/08 01:44:14;;;;;;;18.70;10.90;;;;;10.10;98894.00;;;;5061385;28;20049;-60
2023/04/08 01:46:42;;;;;;;18.02;11.05;;;;;10.10;98889.00;;;;5062112;28;20421;-59
2023/04/08 01:49:09;;;;;;;18.17;11.55;;;;;10.20;98892.00;;;;5062083;28;20110;-59
2023/04/08 01:51:38;;;;;;;16.98;11.38;;;;;10.10;98892.00;;;;5064289;28;20048;-59
2023/04/08 01:54:04;;;;;;;19.83;11.55;;;;;10.10;98894.00;;;;5063464;28;20052;-59
2023/04/08 01:56:36;;;;;;;19.00;11.75;;;;;10.10;98888.00;;;;5065586;28;20049;-60
2023/04/08 01:59:09;;;;;;;15.77;10.45;;;;;10.00;98890.00;;;;5067242;28;20049;-59
2023/04/08 02:01:36;;;;;;;21.65;11.27;;;;;10.00;98892.00;;;;5059748;28;20144;-58
2023/04/08 02:04:03;;;;;;;15.82;10.32;;;;;10.10;98895.00;;;;5064018;28;20049;-57
2023/04/08 02:06:30;;;;;;;19.70;11.23;;;;;10.10;98895.00;;;;5062882;28;20045;-60
2023/04/08 02:08:58;;;;;;;17.23;10.98;;;;;10.10;98888.00;;;;5065078;28;20049;-59
2023/04/08 02:11:25;;;;;;;19.30;11.73;;;;;10.10;98891.00;;;;5064444;28;20045;-58
2023/04/08 02:13:52;;;;;;;16.80;10.50;;;;;10.10;98889.00;;;;5063010;28;20481;-58
2023/04/08 02:16:41;;;;;;;15.65;11.13;;;;;10.20;98891.00;;;;5060462;28;20056;-59
2023/04/08 02:19:17;;;;;;;17.00;11.02;;;;;10.10;98898.00;;;;5054045;28;20106;-58
2023/04/08 02:21:51;;;;;;;18.50;11.10;;;;;10.20;98898.00;;;;5057459;28;20164;-59
2023/04/08 02:24:19;;;;;;;18.52;11.63;;;;;10.10;98894.00;;;;5058827;28;20041;-58
2023/04/08 02:26:49;;;;;;;19.02;11.65;;;;;10.10;98892.00;;;;5057209;28;20060;-59
2023/04/08 02:29:17;;;;;;;16.90;11.73;;;;;10.10;98898.00;;;;5053215;28;20055;-58
2023/04/08 02:31:45;;;;;;;20.70;12.40;;;;;10.10;98902.00;;;;5034614;28;20509;-59
2023/04/08 02:34:15;;;;;;;14.93;10.38;;;;;10.10;98904.00;;;;5051799;28;20041;-58
2023/04/08 02:36:44;;;;;;;19.27;11.57;;;;;10.10;98900.00;;;;5034720;28;20049;-59
2023/04/08 02:39:12;;;;;;;19.25;11.88;;;;;10.10;98906.00;;;;5061494;28;20571;-59
2023/04/08 02:41:38;;;;;;;20.80;12.05;;;;;10.10;98907.00;;;;5063231;28;20071;-59
2023/04/08 02:44:05;;;;;;;20.05;13.00;;;;;10.10;98903.00;;;;5063028;28;20075;-59
2023/04/08 02:46:31;;;;;;;19.25;11.57;;;;;10.10;98903.00;;;;5058119;28;20059;-60
2023/04/08 02:48:58;;;;;;;22.75;12.32;;;;;10.00;98900.00;;;;5056984;28;20651;-59
2023/04/08 02:51:25;;;;;;;18.90;12.65;;;;;10.00;98900.00;;;;5056827;28;20097;-59
2023/04/08 02:53:51;;;;;;;19.90;12.82;;;;;10.00;98903.00;;;;5055404;28;20045;-59
2023/04/08 02:56:18;;;;;;;19.17;12.68;;;;;10.00;98905.00;;;;5053960;28;20067;-60
2023/04/08 02:58:44;;;;;;;20.00;11.65;;;;;10.00;98904.00;;;;5055011;28;20240;-59
2023/04/08 03:01:11;;;;;;;19.23;11.93;;;;;10.00;98910.00;;;;5055324;28;20502;-59
2023/04/08 03:03:38;;;;;;;18.45;11.40;;;;;10.00;98909.00;;;;5063252;28;20045;-59
2023/04/08 03:06:05;;;;;;;17.55;12.18;;;;;10.00;98907.00;;;;5063328;28;20567;-58
2023/04/08 03:08:32;;;;;;;20.02;12.32;;;;;10.00;98898.00;;;;5057251;28;20103;-59
2023/04/08 03:10:59;;;;;;;24.42;13.38;;;;;10.00;98898.00;;;;5056512;28;20045;-59
2023/04/08 03:13:25;;;;;;;22.40;13.07;;;;;10.00;98905.00;;;;5052968;28;20436;-59
2023/04/08 03:15:52;;;;;;;20.65;13.02;;;;;10.00;98897.00;;;;5053423;28;20486;-59
2023/04/08 03:18:18;;;;;;;22.58;13.38;;;;;9.90;98897.00;;;;5053120;28;20045;-59
2023/04/08 03:20:45;;;;;;;19.98;13.02;;;;;9.80;98901.00;;;;5053214;28;20045;-60
2023/04/08 03:23:11;;;;;;;19.75;12.88;;;;;9.90;98903.00;;;;5057297;28;20048;-59
2023/04/08 03:25:38;;;;;;;21.98;13.38;;;;;9.90;98905.00;;;;5057687;28;20049;-60
2023/04/08 03:28:05;;;;;;;20.88;13.38;;;;;9.90;98892.00;;;;5058010;28;20501;-60
2023/04/08 03:30:31;;;;;;;24.10;14.32;;;;;9.90;98905.00;;;;5058424;28;20099;-59
2023/04/08 03:32:58;;;;;;;21.50;13.73;;;;;9.90;98904.00;;;;5057957;28;20449;-60
2023/04/08 03:35:25;;;;;;;25.30;13.85;;;;;9.90;98909.00;;;;5058528;28;20512;-60
2023/04/08 03:37:51;;;;;;;21.52;13.73;;;;;9.80;98912.00;;;;5057822;28;20472;-60
2023/04/08 03:40:18;;;;;;;22.63;13.48;;;;;9.90;98906.00;;;;5056757;28;20056;-59
2023/04/08 03:42:45;;;;;;;21.88;13.68;;;;;9.90;98900.00;;;;5056152;28;20072;-60
2023/04/08 03:45:11;;;;;;;19.08;13.05;;;;;9.90;98902.00;;;;5056559;28;20056;-60
2023/04/08 03:47:38;;;;;;;20.58;13.55;;;;;9.90;98899.00;;;;5056607;28;20072;-59
2023/04/08 03:50:05;;;;;;;22.90;14.15;;;;;9.80;98905.00;;;;5057033;28;20041;-59
2023/04/08 03:52:31;;;;;;;22.33;13.25;;;;;9.80;98908.00;;;;5058105;28;20044;-60
2023/04/08 03:54:58;;;;;;;21.98;13.57;;;;;9.80;98903.00;;;;5060561;28;20075;-59
2023/04/08 03:57:24;;;;;;;22.85;13.48;;;;;9.80;98905.00;;;;5059092;28;20048;-60
2023/04/08 03:59:51;;;;;;;28.95;14.32;;;;;9.80;98902.00;;;;5059126;28;20497;-58
2023/04/08 04:02:17;;;;;;;24.08;13.68;;;;;9.90;98908.00;;;;5058370;28;20049;-59
2023/04/08 04:04:44;;;;;;;26.00;14.68;;;;;9.80;98903.00;;;;5059647;28;20075;-59
2023/04/08 04:07:10;;;;;;;25.08;14.52;;;;;9.80;98905.00;;;;5059801;28;20043;-58
2023/04/08 04:09:37;;;;;;;24.08;14.32;;;;;9.80;98906.00;;;;5060163;28;20044;-60
2023/04/08 04:12:04;;;;;;;23.02;13.75;;;;;9.80;98900.00;;;;5054939;28;20066;-59
2023/04/08 04:14:30;;;;;;;25.08;14.05;;;;;9.80;98905.00;;;;5054910;28;20055;-59
2023/04/08 04:16:57;;;;;;;26.77;15.05;;;;;9.80;98904.00;;;;5055073;28;20052;-59
2023/04/08 04:19:23;;;;;;;25.33;14.18;;;;;9.80;98905.00;;;;5054780;28;20418;-59
2023/04/08 04:21:50;;;;;;;23.13;13.45;;;;;9.90;98908.00;;;;5054913;28;20044;-59
2023/04/08 04:24:16;;;;;;;23.63;14.02;;;;;9.80;98908.00;;;;5054766;28;20045;-59
2023/04/08 04:26:43;;;;;;;23.55;13.65;;;;;9.80;98914.00;;;;5054661;28;20102;-59
2023/04/08 04:29:09;;;;;;;24.73;13.52;;;;;9.80;98916.00;;;;5054146;28;20045;-60
2023/04/08 04:31:36;;;;;;;22.27;13.85;;;;;9.80;98912.00;;;;5054290;28;20481;-60
2023/04/08 04:34:03;;;;;;;23.02;13.20;;;;;9.80;98919.00;;;;5054383;28;20037;-60
2023/04/08 04:36:30;;;;;;;22.70;13.73;;;;;9.80;98912.00;;;;5054146;28;20486;-59
2023/04/08 04:38:57;;;;;;;21.73;13.35;;;;;9.80;98925.00;;;;5054084;28;20041;-60
2023/04/08 04:41:23;;;;;;;21.23;13.63;;;;;9.80;98919.00;;;;5054344;28;20044;-60
2023/04/08 04:43:50;;;;;;;23.42;14.05;;;;;9.80;98924.00;;;;5054282;28;20567;-60
2023/04/08 04:46:16;;;;;;;24.83;14.23;;;;;9.80;98923.00;;;;5053824;28;20452;-60
2023/04/08 04:48:43;;;;;;;23.00;13.50;;;;;9.80;98929.00;;;;5054667;28;20464;-60
2023/04/08 04:51:10;;;;;;;25.75;14.13;;;;;9.80;98929.00;;;;5054530;28;20041;-60
2023/04/08 04:53:36;;;;;;;22.15;13.27;;;;;9.80;98933.00;;;;5053900;28;20509;-60
2023/04/08 04:56:03;;;;;;;23.65;14.02;;;;;9.80;98928.00;;;;5053907;28;20045;-60
2023/04/08 04:58:29;;;;;;;26.10;14.23;;;;;9.80;98933.00;;;;5053612;28;20079;-60
2023/04/08 05:00:56;;;;;;;24.83;14.38;;;;;9.80;98940.00;;;;5053749;28;20585;-58
2023/04/08 05:03:23;;;;;;;23.08;13.77;;;;;9.70;98940.00;;;;5053745;28;20456;-60
2023/04/08 05:05:53;;;;;;;22.98;13.88;;;;;9.60;98937.00;;;;5053663;28;20044;-60
2023/04/08 05:08:20;;;;;;;22.13;13.88;;;;;9.70;98937.00;;;;5053767;28;20055;-59
2023/04/08 05:10:49;;;;;;;26.33;14.38;;;;;9.80;98939.00;;;;5053391;28;20536;-59
2023/04/08 05:13:16;;;;;;;24.45;14.20;;;;;9.80;98939.00;;;;5053795;28;20128;-60
2023/04/08 05:15:44;;;;;;;25.65;15.10;;;;;9.90;98943.00;;;;5053541;28;20048;-60
2023/04/08 05:18:11;;;;;;;26.23;15.07;;;;;9.90;98945.00;;;;5053337;28;20047;-60
2023/04/08 05:20:38;;;;;;;25.42;14.60;;;;;9.90;98950.00;;;;5053341;28;20448;-60
2023/04/08 05:23:04;;;;;;;27.00;14.38;;;;;10.00;98951.00;;;;5053477;28;20079;-60
2023/04/08 05:25:31;;;;;;;23.85;15.32;;;;;10.00;98947.00;;;;5052187;28;20490;-59
2023/04/08 05:27:58;;;;;;;22.17;14.15;;;;;10.00;98948.00;;;;5053991;28;20041;-58
2023/04/08 05:30:24;;;;;;;23.48;15.27;;;;;10.00;98959.00;;;;5053690;28;20068;-59
2023/04/08 05:32:51;;;;;;;21.77;13.68;;;;;10.10;98953.00;;;;5053952;28;20041;-59
2023/04/08 05:35:17;;;;;;;22.33;14.30;;;;;10.10;98956.00;;;;5053969;28;20083;-60
2023/04/08 05:37:44;;;;;;;24.92;14.27;;;;;10.10;98955.00;;;;5054175;28;20087;-59
2023/04/08 05:40:10;;;;;;;22.83;13.68;;;;;10.10;98954.00;;;;5053308;28;20486;-60
2023/04/08 05:42:37;;;;;;;22.23;13.32;;;;;10.10;98961.00;;;;5053712;28;20049;-63
2023/04/08 05:45:04;;;;;;;25.80;14.57;;;;;10.10;98964.00;;;;5053586;28;20048;-58
2023/04/08 05:47:31;;;;;;;24.85;15.55;;;;;10.10;98969.00;;;;5052573;28;20052;-59
2023/04/08 05:49:58;;;;;;;21.40;14.25;;;;;10.10;98960.00;;;;5053062;28;20055;-59
2023/04/08 05:52:25;;;;;;;26.90;14.63;;;;;10.10;98967.00;;;;5053229;28;20498;-60
2023/04/08 05:54:51;;;;;;;24.90;13.98;;;;;10.10;98962.00;;;;5053287;28;20053;-60
2023/04/08 05:57:18;;;;;;;23.83;14.90;;;;;10.20;98975.00;;;;5053074;28;20037;-60
2023/04/08 05:59:44;;;;;;;24.33;14.60;;;;;10.20;98969.00;;;;5052692;28;20045;-59
2023/04/08 06:02:11;;;;;;;23.88;14.73;;;;;10.30;98964.00;;;;5051896;28;20064;-60
2023/04/08 06:04:38;;;;;;;27.90;14.63;;;;;10.30;98973.00;;;;5053103;28;20691;-61
2023/04/08 06:07:05;;;;;;;27.83;15.80;;;;;10.40;98967.00;;;;5051860;28;20049;-59
2023/04/08 06:09:35;;;;;;;25.02;15.32;;;;;10.40;98977.00;;;;5051426;28;20037;-59
2023/04/08 06:12:02;;;;;;;26.05;15.25;;;;;10.40;98976.00;;;;5052772;28;20420;-59
2023/04/08 06:14:28;;;;;;;25.17;15.40;;;;;10.50;98983.00;;;;5052997;28;20118;-58
2023/04/08 06:16:56;;;;;;;24.40;15.60;;;;;10.60;98996.00;;;;5053084;28;20505;-60
2023/04/08 06:19:23;;;;;;;26.25;15.52;;;;;10.60;98990.00;;;;5052301;28;20041;-57
2023/04/08 06:21:50;;;;;;;24.48;15.82;;;;;10.70;98982.00;;;;5053420;28;20041;-58
2023/04/08 06:24:16;;;;;;;27.52;16.23;;;;;10.80;98985.00;;;;5051930;28;20135;-59
2023/04/08 06:26:43;;;;;;;25.52;14.63;;;;;10.80;98991.00;;;;5052305;28;20114;-59
2023/04/08 06:29:10;;;;;;;28.10;16.00;;;;;10.90;98987.00;;;;5053525;28;20041;-59
2023/04/08 06:31:37;;;;;;;28.25;15.50;;;;;11.00;98990.00;;;;5053410;28;20059;-60
2023/04/08 06:34:03;;;;;;;28.13;16.38;;;;;11.00;98983.00;;;;5053157;28;20053;-59
2023/04/08 06:36:30;;;;;;;27.35;15.85;;;;;11.00;99001.00;;;;5053142;28;20548;-59
2023/04/08 06:38:56;;;;;;;25.90;15.05;;;;;11.10;98995.00;;;;5035320;28;20048;-59
2023/04/08 06:41:23;;;;;;;26.27;15.13;;;;;11.20;98999.00;;;;5052751;28;20057;-59
2023/04/08 06:43:50;;;;;;;24.80;15.77;;;;;11.30;98991.00;;;;5052629;28;20045;-59
2023/04/08 06:46:16;;;;;;;27.48;15.82;;;;;11.40;99002.00;;;;5050736;28;20053;-59
2023/04/08 06:48:43;;;;;;;24.73;15.68;;;;;11.40;98995.00;;;;5052016;28;20033;-60
2023/04/08 06:51:10;;;;;;;26.60;15.60;;;;;11.50;98996.00;;;;5051800;28;20402;-55
2023/04/08 06:53:37;;;;;;;29.25;17.20;;;;;11.50;99005.00;;;;5052114;28;20399;-56
2023/04/08 06:56:03;;;;;;;27.50;15.68;;;;;11.60;99010.00;;;;5034690;28;20098;-56
2023/04/08 06:58:30;;;;;;;25.23;15.65;;;;;11.60;98999.00;;;;5051434;28;20060;-58
2023/04/08 07:00:58;;;;;;;24.40;15.73;;;;;11.60;99008.00;;;;5051721;28;20103;-56
2023/04/08 07:03:25;;;;;;;23.65;14.80;;;;;11.70;99001.00;;;;5051960;28;20532;-58
2023/04/08 07:05:52;;;;;;;23.75;15.38;;;;;11.80;99014.00;;;;5050559;28;20095;-56
2023/04/08 07:08:18;;;;;;;22.27;15.40;;;;;11.90;99007.00;;;;5051755;28;20091;-58
2023/04/08 07:10:45;;;;;;;21.55;14.73;;;;;12.10;99022.00;;;;5051494;28;20068;-57
2023/04/08 07:13:12;;;;;;;24.13;14.75;;;;;12.20;99014.00;;;;5052081;28;20041;-56
2023/04/08 07:15:39;;;;;;;23.45;15.38;;;;;12.30;99016.00;;;;5050334;28;20048;-56
2023/04/08 07:18:06;;;;;;;21.33;13.95;;;;;12.40;99025.00;;;;5051503;28;20037;-56
2023/04/08 07:20:37;;;;;;;26.10;15.75;;;;;12.40;99022.00;;;;5051322;28;20041;-59
2023/04/08 07:23:03;;;;;;;22.50;15.05;;;;;12.40;99027.00;;;;5051565;28;20053;-58
2023/04/08 07:25:33;;;;;;;22.10;14.48;;;;;12.40;99026.00;;;;5051568;28;20045;-56
2023/04/08 07:28:00;;;;;;;23.58;14.75;;;;;12.40;99027.00;;;;5053660;28;20444;-55
2023/04/08 07:30:26;;;;;;;26.08;15.50;;;;;12.30;99024.00;;;;5055193;28;20167;-56
2023/04/08 07:32:54;;;;;;;19.55;13.75;;;;;12.30;99033.00;;;;5055239;28;20452;-58
2023/04/08 07:35:25;;;;;;;21.10;13.85;;;;;12.40;99023.00;;;;5055226;28;20486;-56
2023/04/08 07:37:52;;;;;;;22.42;14.10;;;;;12.30;99024.00;;;;5055301;28;20040;-57
2023/04/08 07:40:18;;;;;;;19.63;13.57;;;;;12.40;99030.00;;;;5054774;28;20482;-57
2023/04/08 07:42:45;;;;;;;18.20;13.40;;;;;12.50;99039.00;;;;5055064;28;20091;-56
2023/04/08 07:45:11;;;;;;;21.75;14.35;;;;;12.60;99043.00;;;;5055230;28;20159;-59
2023/04/08 07:47:38;;;;;;;40.17;26.40;;;;;12.60;99048.00;;;;5055101;28;20044;-56
2023/04/08 07:50:05;;;;;;;25.52;18.42;;;;;12.40;99041.00;;;;5053646;28;20133;-56
2023/04/08 07:52:33;;;;;;;21.15;15.18;;;;;12.40;99028.00;;;;5054901;28;20048;-57
2023/04/08 07:55:00;;;;;;;18.63;14.55;;;;;12.40;99042.00;;;;5054899;28;20045;-56
2023/04/08 07:57:27;;;;;;;19.45;14.38;;;;;12.40;99035.00;;;;5036900;28;20049;-55
2023/04/08 07:59:54;;;;;;;20.52;14.85;;;;;12.40;99041.00;;;;5054472;28;20555;-57
2023/04/08 08:02:20;;;;;;;19.52;14.25;;;;;12.60;99044.00;;;;5054671;28;20497;-56
2023/04/08 08:04:47;;;;;;;20.45;15.27;;;;;12.70;99043.00;;;;5054769;28;20045;-55
2023/04/08 08:07:14;;;;;;;18.38;14.02;;;;;12.80;99044.00;;;;5054739;28;20091;-54
2023/04/08 08:09:40;;;;;;;19.98;13.95;;;;;12.70;99049.00;;;;5054377;28;20111;-57
2023/04/08 08:12:06;;;;;;;18.52;13.20;;;;;12.80;99050.00;;;;5054335;28;20047;-55
2023/04/08 08:14:33;;;;;;;21.80;14.73;;;;;12.80;99056.00;;;;5054536;28;20452;-56
2023/04/08 08:17:00;;;;;;;19.02;13.70;;;;;12.70;99055.00;;;;5054350;28;20037;-55
2023/04/08 08:19:26;;;;;;;24.30;15.20;;;;;12.70;99060.00;;;;5052890;28;20186;-57
2023/04/08 08:21:53;;;;;;;20.30;14.45;;;;;12.90;99064.00;;;;5054249;28;20650;-55
2023/04/08 08:24:20;;;;;;;19.85;13.35;;;;;13.10;99058.00;;;;5054492;28;20044;-56
2023/04/08 08:26:48;;;;;;;19.65;14.35;;;;;13.30;99061.00;;;;5052837;28;20470;-56
2023/04/08 08:29:14;;;;;;;18.40;13.07;;;;;13.40;99058.00;;;;5054218;28;20049;-56
2023/04/08 08:31:41;;;;;;;18.38;13.63;;;;;13.30;99071.00;;;;5054174;28;20102;-57
2023/04/08 08:34:08;;;;;;;17.55;13.48;;;;;13.20;99065.00;;;;5054352;28;20099;-57
2023/04/08 08:36:35;;;;;;;19.05;13.45;;;;;13.20;99067.00;;;;5054083;28;20095;-56
2023/04/08 08:39:01;;;;;;;17.75;12.63;;;;;13.40;99064.00;;;;5053350;28;20095;-59
2023/04/08 08:41:33;;;;;;;16.70;12.43;;;;;13.40;99072.00;;;;5053904;28;20047;-56
2023/04/08 08:44:01;;;;;;;17.20;13.48;;;;;13.60;99076.00;;;;5054049;28;20521;-56
2023/04/08 08:46:28;;;;;;;17.83;12.73;;;;;13.60;99081.00;;;;5054004;28;20094;-57
2023/04/08 08:48:59;;;;;;;16.30;13.15;;;;;13.50;99075.00;;;;5053559;28;20518;-58
2023/04/08 08:51:26;;;;;;;18.27;12.75;;;;;13.40;99080.00;;;;5054091;28;20494;-57
2023/04/08 08:53:53;;;;;;;18.85;14.10;;;;;13.40;99072.00;;;;5053972;28;20041;-56
2023/04/08 08:56:20;;;;;;;17.50;13.18;;;;;13.50;99073.00;;;;5053833;28;20045;-57
2023/04/08 08:58:47;;;;;;;17.48;13.13;;;;;13.60;99075.00;;;;5053495;28;20083;-56
2023/04/08 09:01:37;;;;;;;16.55;12.82;;;;;13.70;99079.00;;;;5053773;28;20045;-55
2023/04/08 09:04:14;;;;;;;18.80;12.30;;;;;13.80;99083.00;;;;5053739;28;20079;-58
2023/04/08 09:06:42;;;;;;;17.20;12.88;;;;;13.90;99076.00;;;;5053781;28;20045;-56
2023/04/08 09:09:10;;;;;;;19.48;13.30;;;;;13.90;99077.00;;;;5053430;28;20048;-58
2023/04/08 09:11:41;;;;;;;17.45;13.55;;;;;14.00;99085.00;;;;5053527;28;20037;-56
2023/04/08 09:14:21;;;;;;;17.13;12.73;;;;;14.10;99078.00;;;;5053501;28;20099;-59
2023/04/08 09:16:49;;;;;;;18.50;13.25;;;;;14.20;99080.00;;;;5053209;28;20732;-56
2023/04/08 09:19:16;;;;;;;16.80;12.88;;;;;14.20;99080.00;;;;5053176;28;20041;-56
2023/04/08 09:21:43;;;;;;;18.30;13.02;;;;;14.40;99085.00;;;;5053476;28;20041;-57
2023/04/08 09:24:27;;;;;;;18.90;13.55;;;;;14.50;99079.00;;;;5053224;28;20059;-57
2023/04/08 09:26:55;;;;;;;17.23;12.90;;;;;14.60;99072.00;;;;5051943;28;20502;-56
2023/04/08 09:29:23;;;;;;;20.00;14.30;;;;;14.70;99069.00;;;;5053088;28;20060;-56
2023/04/08 09:31:54;;;;;;;17.25;12.98;;;;;15.00;99073.00;;;;5053165;28;20506;-59
2023/04/08 09:34:22;;;;;;;18.85;12.52;;;;;15.20;99072.00;;;;5051741;28;20053;-59
2023/04/08 09:36:49;;;;;;;17.60;12.65;;;;;15.40;99062.00;;;;5052975;28;20051;-56
2023/04/08 09:39:16;;;;;;;20.83;13.50;;;;;15.60;99075.00;;;;5051630;28;20056;-60
2023/04/08 09:41:43;;;;;;;17.55;13.45;;;;;15.60;99084.00;;;;5052954;28;20465;-59
2023/04/08 09:44:10;;;;;;;18.25;13.80;;;;;15.40;99073.00;;;;5052887;28;20040;-57
2023/04/08 09:46:49;;;;;;;17.73;13.13;;;;;15.20;99080.00;;;;5052934;28;20037;-58
2023/04/08 09:49:26;;;;;;;19.50;13.98;;;;;15.10;99077.00;;;;5052142;28;20052;-59
2023/04/08 09:52:23;;;;;;;14.73;11.85;;;;;15.20;99087.00;;;;5052630;28;20544;-62
2023/04/08 09:55:05;;;;;;;16.25;13.45;;;;;15.20;99097.00;;;;5052929;28;20041;-59
2023/04/08 09:57:40;;;;;;;16.17;12.65;;;;;15.10;99093.00;;;;5052598;28;20401;-57
2023/04/08 10:00:13;;;;;;;17.52;13.15;;;;;15.30;99084.00;;;;5052332;28;20494;-55
2023/04/08 10:03:09;;;;;;;17.37;13.33;;;;;15.60;99094.00;;;;5052871;28;20045;-58
2023/04/08 10:05:39;;;;;;;16.45;12.57;;;;;15.70;99101.00;;;;5052625;28;20497;-56
2023/04/08 10:08:06;;;;;;;18.08;13.07;;;;;15.70;99095.00;;;;5051168;28;20087;-57
2023/04/08 10:10:35;;;;;;;14.70;11.77;;;;;15.70;99088.00;;;;5052360;28;20041;-55
2023/04/08 10:13:03;;;;;;;15.18;11.40;;;;;15.70;99091.00;;;;5052570;28;20048;-57
2023/04/08 10:15:31;;;;;;;18.90;12.85;;;;;15.70;99095.00;;;;5052536;28;20053;-56
2023/04/08 10:18:04;;;;;;;17.42;12.23;;;;;15.60;99094.00;;;;5052282;28;20059;-55
2023/04/08 10:20:33;;;;;;;15.48;12.35;;;;;15.80;99091.00;;;;5052089;28;20399;-56
2023/04/08 10:23:12;;;;;;;14.82;12.27;;;;;16.00;99090.00;;;;5052283;28;20045;-58
2023/04/08 10:25:43;;;;;;;16.30;12.43;;;;;16.00;99088.00;;;;5052345;28;20076;-57
2023/04/08 10:28:10;;;;;;;15.27;12.55;;;;;16.00;99091.00;;;;5051963;28;20048;-58
2023/04/08 10:30:37;;;;;;;15.98;13.15;;;;;16.10;99101.00;;;;5051968;28;20127;-56
2023/04/08 10:33:13;;;;;;;15.77;13.05;;;;;15.90;99095.00;;;;5052165;28;20052;-55
2023/04/08 10:35:45;;;;;;;17.02;12.82;;;;;15.70;99092.00;;;;5052143;28;20490;-54
2023/04/08 10:38:13;;;;;;;17.20;13.20;;;;;15.70;99091.00;;;;5052258;28;20493;-56
2023/04/08 10:40:41;;;;;;;16.75;13.10;;;;;15.50;99088.00;;;;5053335;28;20044;-54
2023/04/08 10:43:12;;;;;;;17.83;12.90;;;;;15.40;99099.00;;;;5052441;28;20049;-55
2023/04/08 10:45:40;;;;;;;14.65;12.15;;;;;15.50;99090.00;;;;5052170;28;20053;-56
2023/04/08 10:48:19;;;;;;;15.32;12.77;;;;;15.70;99094.00;;;;5052200;28;20068;-55
2023/04/08 10:51:02;;;;;;;17.75;13.15;;;;;15.70;99100.00;;;;5051250;28;20047;-54
2023/04/08 10:53:38;;;;;;;17.63;13.40;;;;;15.40;99106.00;;;;5050815;28;20047;-58
2023/04/08 10:56:06;;;;;;;17.80;12.45;;;;;15.10;99097.00;;;;5051893;28;20433;-55
2023/04/08 10:58:47;;;;;;;15.43;12.05;;;;;15.10;99098.00;;;;5051448;28;20116;-58
2023/04/08 11:01:13;;;;;;;16.73;12.77;;;;;15.20;99103.00;;;;5052982;28;20546;-57
2023/04/08 11:03:41;;;;;;;16.17;12.88;;;;;15.20;99104.00;;;;5056076;28;20102;-56
2023/04/08 11:06:08;;;;;;;21.17;14.10;;;;;15.40;99108.00;;;;5055978;28;20099;-56
2023/04/08 11:08:35;;;;;;;23.33;14.55;;;;;15.50;99103.00;;;;5055511;28;20051;-56
2023/04/08 11:11:04;;;;;;;17.45;12.82;;;;;15.70;99104.00;;;;5055761;28;20044;-54
2023/04/08 11:13:32;;;;;;;17.27;12.68;;;;;15.80;99111.00;;;;5055919;28;20044;-56
2023/04/08 11:15:59;;;;;;;16.08;12.65;;;;;15.80;99110.00;;;;5055951;28;20568;-58
2023/04/08 11:18:26;;;;;;;15.73;13.18;;;;;15.70;99106.00;;;;5055494;28;20041;-56
2023/04/08 11:20:53;;;;;;;19.33;13.63;;;;;15.60;99113.00;;;;5055513;28;20493;-56
2023/04/08 11:23:21;;;;;;;17.52;13.88;;;;;15.30;99117.00;;;;5055564;28;20045;-56
2023/04/08 11:25:49;;;;;;;18.45;13.32;;;;;15.20;99100.00;;;;5055543;28;20041;-57
2023/04/08 11:28:16;;;;;;;16.75;13.55;;;;;15.20;99097.00;;;;5055578;28;20044;-55
2023/04/08 11:30:43;;;;;;;17.77;13.45;;;;;15.30;99102.00;;;;5055129;28;20040;-55
2023/04/08 11:33:12;;;;;;;17.65;13.38;;;;;15.20;99101.00;;;;5054182;28;20532;-55
2023/04/08 11:35:42;;;;;;;16.60;13.60;;;;;15.20;99097.00;;;;5055405;28;20060;-58
2023/04/08 11:38:10;;;;;;;21.10;13.85;;;;;15.00;99099.00;;;;5055243;28;20568;-55
2023/04/08 11:40:37;;;;;;;18.17;13.27;;;;;15.00;99105.00;;;;5055100;28;20036;-57
2023/04/08 11:43:11;;;;;;;17.35;13.05;;;;;15.00;99100.00;;;;5055452;28;20063;-56
2023/04/08 11:45:39;;;;;;;18.85;13.57;;;;;15.10;99095.00;;;;5055361;28;20106;-56
2023/04/08 11:48:13;;;;;;;22.90;13.45;;;;;15.10;99097.00;;;;5055088;28;20059;-55
2023/04/08 11:50:41;;;;;;;16.88;13.10;;;;;15.30;99102.00;;;;5054864;28;20037;-56
2023/04/08 11:53:21;;;;;;;18.83;13.68;;;;;15.10;99104.00;;;;5055056;28;20045;-58
2023/04/08 11:55:47;;;;;;;19.55;12.60;;;;;14.90;99104.00;;;;5055042;28;20053;-59
2023/04/08 11:58:14;;;;;;;18.02;13.23;;;;;14.80;99098.00;;;;5054899;28;20087;-55
2023/04/08 12:00:41;;;;;;;17.10;12.88;;;;;14.70;99098.00;;;;5054866;28;20540;-54
2023/04/08 12:03:08;;;;;;;15.75;12.43;;;;;14.70;99097.00;;;;5055052;28;20041;-56
2023/04/08 12:05:35;;;;;;;18.02;12.10;;;;;14.80;99101.00;;;;5055020;28;20592;-58
2023/04/08 12:08:02;;;;;;;16.35;12.02;;;;;15.00;99095.00;;;;5054915;28;20045;-56